Skip to main content

NOAA/GLERL Met Station at Michigan City, IN

Previous 3 Hours (2 minute increments)
See also Previous 5 Days (top of hour)
Jump down to Data
Switch to [English][Metric]
Zoom: Click and drag, Pan: shift-click and drag, Unzoom: double-click, Unzoom All





See also 1-day windrose plot


NOAA/GLERL Met Station at Michigan City, IN

Previous 3 Hours (2 minute increments)
See also Previous 5 Days (top of hour only)
Jump up to Graphs
Switch to [English][Metric]
                  Wind  Wind  Wind   Air   Dew   Rel     Sta   PAR
                   Spd   Gst   Dir  Temp    Pt   Hum    Pres uE/m2/
YYYY-MM-DD   CST   kts   kts   deg     F     F     %   in Hg   sec
2020-02-19 18:06  10.5  13.0   355  24.3   8.5  50.7    0.00     0
2020-02-19 18:04  10.1  12.2   359  24.3   8.4  50.6    0.00     0
2020-02-19 18:02  10.5  13.2   357  24.4   9.1  51.7    0.00     0
2020-02-19 18:00   9.5  12.2   349  24.3   8.7  51.1    0.00     0
2020-02-19 17:58   9.5  12.2   348  24.4   8.6  50.7    0.00     0
2020-02-19 17:56   9.9  10.9   348  24.4   9.0  51.5    0.00     0
2020-02-19 17:54  11.7  14.4   351  24.4   8.8  51.1    0.00     0
2020-02-19 17:52  11.3  13.2   345  24.4   9.6  52.9    0.00     0
2020-02-19 17:50   8.2   9.9   354  24.3   8.9  51.6    0.00     0
2020-02-19 17:48  10.1  13.0   348  24.4   9.1  51.8    0.00     0
2020-02-19 17:46   9.3  11.3   353  24.4   9.4  52.5    0.00     0
2020-02-19 17:44  10.7  12.6   350  24.4   9.2  52.0    0.00     0
2020-02-19 17:42  10.5  12.8   335  24.4   9.0  51.5    0.00     0
2020-02-19 17:40  10.9  11.7   344  24.4   9.0  51.4    0.00     0
2020-02-19 17:38  10.1  11.3     1  24.4   8.9  51.2    0.00     0
2020-02-19 17:36  10.7  12.6   352  24.4   9.1  51.8    0.00     0
2020-02-19 17:34  10.1  11.5   348  24.4   9.0  51.6    0.00     0
2020-02-19 17:32   9.9  12.6   353  24.4   9.0  51.6    0.00     0
2020-02-19 17:30   8.9  10.1   346  24.4   9.0  51.4    0.00     0
2020-02-19 17:28  10.1  11.7   343  24.6   9.3  51.7    0.00     0
2020-02-19 17:26  10.5  11.5   348  24.6   9.5  52.2    0.00     0
2020-02-19 17:24   8.6  10.7   356  24.6   9.3  51.8    0.00     0
2020-02-19 17:22   7.0   7.6   342  24.4   8.4  50.2    0.00     0
2020-02-19 17:20   8.7   9.7   347  24.6   8.8  50.6    0.00     0
2020-02-19 17:18   9.1  10.9   351  24.6   8.8  50.7    0.00     0
2020-02-19 17:16   9.1  10.3   346  24.6   8.3  49.5    0.00     0
2020-02-19 17:14  10.5  11.5   350  24.8   9.6  52.1    0.00     0
2020-02-19 17:12   8.4  10.3   350  24.6   9.2  51.6    0.00     0
2020-02-19 17:10   8.0   8.9   352  24.4   8.7  50.8    0.00     0
2020-02-19 17:08   8.4   9.5     3  24.3   8.1  49.8    0.00     0
2020-02-19 17:06   7.8   8.9     4  24.4   8.6  50.5    0.00     0
2020-02-19 17:04   7.6   9.1   349  24.6   8.8  50.6    0.00     0
2020-02-19 17:02   7.4   8.4   347  24.6   8.8  50.6    0.00     0
2020-02-19 17:00   9.1  10.7   352  24.6   8.7  50.4    0.00    22
2020-02-19 16:58   8.2   9.7     1  24.4   7.9  49.1    0.00    70
2020-02-19 16:56   8.0   9.1   357  25.0   7.7  47.6    0.00    81
2020-02-19 16:54   8.6  10.1   351  25.2   8.4  48.6    0.00    82
2020-02-19 16:52   8.9  10.7   353  25.5   8.2  47.5    0.00    82
2020-02-19 16:50   7.2   9.7   341  25.7   8.1  46.9    0.00    94
2020-02-19 16:48   8.4  10.9   348  25.7   7.9  46.6    0.00   156
2020-02-19 16:46   9.5  10.5   344  25.7   7.9  46.5    0.00   165
2020-02-19 16:44   8.6  11.7   353  25.9   8.2  46.8    0.00   165
2020-02-19 16:42   8.9  10.3   344  25.7   7.7  46.2    0.00   165
2020-02-19 16:40   9.3  10.1   336  25.7   8.1  46.9    0.00   165
2020-02-19 16:38   8.7  10.7   345  25.5   7.6  46.2    0.00   165
2020-02-19 16:36   8.7  11.1   348  25.0   7.3  46.6    0.00   165
2020-02-19 16:34   8.9   9.5     5  24.8   7.1  46.6    0.00   165
2020-02-19 16:32   8.9   9.9     4  24.8   8.0  48.6    0.00   165
2020-02-19 16:30   8.0   8.9     6  25.0   7.9  47.9    0.00   170
2020-02-19 16:28   7.8   9.3     3  25.5   8.5  48.2    0.00   220
2020-02-19 16:26   8.0  10.5   358  25.0   8.7  49.7    0.00   244
2020-02-19 16:24   8.0   9.1     2  25.0   9.1  50.5    0.00   247
2020-02-19 16:22   7.4   9.5    15  24.4   7.3  47.8    0.00   247
2020-02-19 16:20   7.0   8.4    12  24.6   7.4  47.5    0.00   247
2020-02-19 16:18   9.1  11.1     5  25.9   8.8  48.0    0.00   247
2020-02-19 16:16   7.8   9.1   351  26.2   8.2  46.2    0.00   247
2020-02-19 16:14   9.7  10.9   350  26.1   7.6  45.2    0.00   257
2020-02-19 16:12   9.5  12.2   351  26.1   7.6  45.2    0.00   304
2020-02-19 16:10   8.9   9.7   346  25.7   7.4  45.5    0.00   302
2020-02-19 16:08   9.9  11.5   357  25.3   7.8  47.1    0.00   314
2020-02-19 16:06   9.5  12.2     2  25.2   8.9  49.7    0.00   300
2020-02-19 16:04   8.7  10.7     0  24.6   8.2  49.3    0.00   326
2020-02-19 16:02   9.7  10.5     6  25.0   8.2  48.6    0.00   329
2020-02-19 16:00  10.3  12.4   357  25.2   8.1  48.1    0.00   329
2020-02-19 15:58   9.1  10.5     5  25.0   7.1  46.2    0.00   329
2020-02-19 15:56  11.5  12.4   352  25.7   8.4  47.5    0.00   329
2020-02-19 15:54  10.3  12.2   359  25.7   9.3  49.5    0.00   331
2020-02-19 15:52  10.5  12.8   353  25.3   9.2  50.0    0.00   403
2020-02-19 15:50  10.3  11.7     2  25.0   8.5  49.2    0.00   412
2020-02-19 15:48  10.1  12.2     4  25.0   8.3  48.8    0.00   412
2020-02-19 15:46  10.7  11.5     6  24.4   5.4  43.8    0.00   412
2020-02-19 15:44  11.5  12.8     5  24.8   6.8  46.0    0.00   412
2020-02-19 15:42   9.7  11.3     2  24.6   8.2  49.3    0.00   413
2020-02-19 15:40  10.7  12.1     4  24.1   7.3  48.4    0.00   456
2020-02-19 15:38  10.5  12.4    12  24.1   5.9  45.6    0.00   492
2020-02-19 15:36   9.7  10.9    16  24.6   7.5  47.8    0.00   448
2020-02-19 15:34   8.6   9.7     6  24.6   6.3  45.3    0.00   490
2020-02-19 15:32  11.1  13.0     1  25.5   7.5  46.1    0.00   494
2020-02-19 15:30   9.1  10.1   354  25.2   8.6  49.1    0.00   494
2020-02-19 15:28  10.1  11.9     8  24.4   7.8  48.9    0.00   494
2020-02-19 15:26   9.9  11.5     2  25.2   8.5  48.8    0.00   494
2020-02-19 15:24   9.3  10.3   357  24.3   7.4  48.4    0.00   497
2020-02-19 15:22   9.7  11.3     8  24.4   7.9  49.1    0.00   575
2020-02-19 15:20  10.9  12.4     5  25.3   8.2  47.9    0.00   566
2020-02-19 15:18  10.5  11.5   349  25.3   6.7  44.7    0.00   569
2020-02-19 15:16   9.3  10.3     1  24.8   4.5  41.5    0.00   583
2020-02-19 15:14  10.5  11.7     2  25.5   6.4  43.9    0.00   624
2020-02-19 15:12  11.1  11.9   354  25.9   8.6  47.7    0.00   619
2020-02-19 15:10   9.9  11.7   355  25.9   8.3  47.1    0.00   655
2020-02-19 15:08   9.9  11.3   337  25.7   7.1  45.0    0.00   659
2020-02-19 15:06   9.3  11.3   338  25.5   8.3  47.7    0.00   659